Time;durP1;ratioP1;P1;durP2;ratioP2;P2;SDS_P1;SDS_P2;PMS_P1;PMS_P2;Temp;Humidity;BMP_temperature;BMP_pressure;BME280_temperature;BME280_humidity;BME280_pressure;Samples;Min_cycle;Max_cycle;Signal;HPM_P1;HPM_P2
2022/07/21 00:00:47;;;;;;;30.40;28.17;;;23.00;67.50;;;;;;4951876;28;20046;-81
2022/07/21 00:03:14;;;;;;;32.25;29.63;;;23.10;67.80;;;;;;4952509;29;20035;-81
2022/07/21 00:05:40;;;;;;;33.13;30.70;;;23.10;67.40;;;;;;4938050;29;20034;-81
2022/07/21 00:08:06;;;;;;;33.13;30.90;;;23.10;67.10;;;;;;4947530;29;20043;-81
2022/07/21 00:10:32;;;;;;;31.02;28.88;;;23.10;67.20;;;;;;4951153;28;20023;-81
2022/07/21 00:12:58;;;;;;;32.78;30.42;;;23.20;67.10;;;;;;4952274;29;20332;-81
2022/07/21 00:15:25;;;;;;;33.03;30.33;;;23.10;67.30;;;;;;4951938;28;20480;-81
2022/07/21 00:17:52;;;;;;;32.15;29.60;;;22.90;67.70;;;;;;4951910;28;20391;-81
2022/07/21 00:20:19;;;;;;;31.77;29.50;;;22.90;68.30;;;;;;4954305;28;20035;-81
2022/07/21 00:22:45;;;;;;;33.42;30.67;;;22.80;68.40;;;;;;4938979;29;20072;-81
2022/07/21 00:25:12;;;;;;;31.58;29.27;;;22.80;68.50;;;;;;4954800;28;20035;-81
2022/07/21 00:27:38;;;;;;;31.27;28.67;;;22.70;68.60;;;;;;4955686;29;20055;-81
2022/07/21 00:30:05;;;;;;;30.80;28.38;;;22.70;68.40;;;;;;4938312;28;20040;-81
2022/07/21 00:32:31;;;;;;;30.63;28.38;;;22.70;68.80;;;;;;4955992;28;20482;-81
2022/07/21 00:34:58;;;;;;;29.48;27.02;;;22.60;69.10;;;;;;4955480;29;20031;-81
2022/07/21 00:37:24;;;;;;;29.42;27.30;;;22.70;68.70;;;;;;4955797;29;20020;-81
2022/07/21 00:39:51;;;;;;;27.35;25.45;;;22.70;68.70;;;;;;4955926;29;20035;-81
2022/07/21 00:42:27;;;;;;;28.98;26.88;;;22.60;68.90;;;;;;4955767;29;20378;-81
2022/07/21 00:44:53;;;;;;;28.55;26.75;;;22.60;68.80;;;;;;4955991;29;20035;-81
2022/07/21 00:47:22;;;;;;;27.70;25.33;;;22.70;68.60;;;;;;4955377;28;20390;-81
2022/07/21 00:49:49;;;;;;;26.38;24.35;;;22.70;68.50;;;;;;4954047;28;20290;-81
2022/07/21 00:52:15;;;;;;;27.02;24.67;;;22.70;68.40;;;;;;4955321;28;20482;-81
2022/07/21 00:54:41;;;;;;;28.63;26.48;;;22.70;68.20;;;;;;4955596;29;20039;-81
2022/07/21 00:57:08;;;;;;;28.20;26.00;;;22.70;68.40;;;;;;4954269;29;20034;-81
2022/07/21 00:59:34;;;;;;;30.05;27.80;;;22.70;68.40;;;;;;4957023;28;20057;-81
2022/07/21 01:02:00;;;;;;;29.27;27.08;;;22.60;68.50;;;;;;4955599;28;20110;-81
2022/07/21 01:04:26;;;;;;;29.60;27.33;;;22.70;68.20;;;;;;4953726;28;20066;-81
2022/07/21 01:06:53;;;;;;;29.55;27.50;;;22.70;68.00;;;;;;4947751;29;20050;-81
2022/07/21 01:09:20;;;;;;;28.80;26.52;;;22.70;68.10;;;;;;4934789;29;20035;-81
2022/07/21 01:11:46;;;;;;;30.83;28.00;;;22.70;68.00;;;;;;4935939;29;20030;-81
2022/07/21 01:14:12;;;;;;;30.60;28.45;;;22.70;67.90;;;;;;4934595;29;20483;-81
2022/07/21 01:16:40;;;;;;;30.90;28.55;;;22.80;67.80;;;;;;4934190;28;20441;-81
2022/07/21 01:19:06;;;;;;;30.67;28.35;;;22.80;67.70;;;;;;4934485;29;20032;-81
2022/07/21 01:21:33;;;;;;;30.67;28.33;;;22.80;67.70;;;;;;4934317;29;20035;-81
2022/07/21 01:23:59;;;;;;;29.23;27.05;;;22.80;67.80;;;;;;4935718;29;20040;-81
2022/07/21 01:26:26;;;;;;;32.30;29.65;;;22.80;67.70;;;;;;4934570;29;20023;-81
2022/07/21 01:28:52;;;;;;;32.85;30.27;;;22.80;67.60;;;;;;4935658;29;20042;-81
2022/07/21 01:31:18;;;;;;;32.17;29.70;;;22.80;67.80;;;;;;4934477;28;20032;-81
2022/07/21 01:33:45;;;;;;;32.65;30.42;;;22.70;67.70;;;;;;4933533;29;20052;-81
2022/07/21 01:36:11;;;;;;;34.33;31.70;;;22.70;67.80;;;;;;4933830;29;20047;-81
2022/07/21 01:41:30;;;;;;;33.38;30.88;;;22.80;67.90;;;;;;4936436;29;20044;-81
2022/07/21 01:43:57;;;;;;;33.47;30.75;;;22.80;67.80;;;;;;4935446;29;20035;-81
2022/07/21 01:46:23;;;;;;;32.63;30.63;;;22.80;67.80;;;;;;4934512;28;20414;-81
2022/07/21 01:48:49;;;;;;;35.40;32.72;;;22.70;68.10;;;;;;4935279;29;20066;-81
2022/07/21 01:51:16;;;;;;;34.13;31.52;;;22.80;67.90;;;;;;4935223;29;20035;-81
2022/07/21 01:53:42;;;;;;;33.30;30.98;;;22.80;68.10;;;;;;4935121;29;20035;-81
2022/07/21 01:56:08;;;;;;;34.60;32.10;;;22.80;68.80;;;;;;4935164;29;20027;-81
2022/07/21 01:58:34;;;;;;;32.42;30.52;;;22.80;67.90;;;;;;4933871;29;20048;-81
2022/07/21 02:01:00;;;;;;;34.75;32.35;;;22.80;68.10;;;;;;4967367;28;20568;-81
2022/07/21 02:03:26;;;;;;;34.15;31.65;;;22.80;68.00;;;;;;4954326;29;20055;-81
2022/07/21 02:05:52;;;;;;;34.50;32.10;;;22.80;67.90;;;;;;4952996;29;20034;-81
2022/07/21 02:08:18;;;;;;;33.10;31.02;;;22.80;68.00;;;;;;4953721;29;20405;-81
2022/07/21 02:10:44;;;;;;;33.03;30.77;;;22.90;67.80;;;;;;4952750;29;20042;-81
2022/07/21 02:13:10;;;;;;;33.05;30.85;;;22.90;67.80;;;;;;4953925;29;20389;-81
2022/07/21 02:15:36;;;;;;;31.80;29.55;;;22.90;67.80;;;;;;4953071;28;20023;-81
2022/07/21 02:18:03;;;;;;;32.83;30.52;;;22.90;67.90;;;;;;4952935;29;20418;-81
2022/07/21 02:20:29;;;;;;;34.60;32.00;;;22.90;67.90;;;;;;4953832;29;20092;-81
2022/07/21 02:22:55;;;;;;;33.20;30.70;;;22.90;67.80;;;;;;4953763;29;20035;-81
2022/07/21 02:25:21;;;;;;;32.80;30.50;;;22.90;68.00;;;;;;4953781;29;20031;-81
2022/07/21 02:27:47;;;;;;;34.53;31.70;;;22.90;68.00;;;;;;4953961;28;20035;-81
2022/07/21 02:30:13;;;;;;;32.92;30.58;;;22.90;68.10;;;;;;4952966;28;20051;-81
2022/07/21 02:32:39;;;;;;;32.70;30.02;;;22.90;68.20;;;;;;4952122;29;20408;-82
2022/07/21 02:35:06;;;;;;;33.45;31.15;;;22.90;68.30;;;;;;4953726;29;20038;-81
2022/07/21 02:37:32;;;;;;;32.47;30.10;;;22.90;68.20;;;;;;4953554;28;20027;-81
2022/07/21 02:39:58;;;;;;;34.42;31.67;;;22.90;68.00;;;;;;4953839;29;20039;-80
2022/07/21 02:42:24;;;;;;;31.52;29.23;;;22.80;68.30;;;;;;4952510;28;20030;-81
2022/07/21 02:44:50;;;;;;;35.63;32.92;;;22.80;68.50;;;;;;4951863;29;20027;-81
2022/07/21 02:47:17;;;;;;;34.58;32.22;;;22.80;68.50;;;;;;4967535;28;20035;-81
2022/07/21 02:49:44;;;;;;;32.70;30.13;;;22.80;68.50;;;;;;4953679;28;20071;-81
2022/07/21 02:52:10;;;;;;;31.05;28.65;;;22.70;68.90;;;;;;4953424;28;20042;-81
2022/07/21 02:54:37;;;;;;;32.63;29.83;;;22.50;69.50;;;;;;4953414;29;20038;-81
2022/07/21 02:57:03;;;;;;;29.02;26.80;;;22.40;70.00;;;;;;4952082;29;20582;-81
2022/07/21 02:59:29;;;;;;;29.27;27.27;;;22.00;70.70;;;;;;4952882;28;20354;-81
2022/07/21 03:01:55;;;;;;;29.17;26.90;;;21.80;71.60;;;;;;4952355;28;20042;-81
2022/07/21 03:04:21;;;;;;;28.80;26.63;;;21.60;71.60;;;;;;4964441;28;20019;-81
2022/07/21 03:06:47;;;;;;;28.73;26.50;;;21.50;71.90;;;;;;4939102;29;20023;-81
2022/07/21 03:09:14;;;;;;;26.45;24.15;;;21.40;70.80;;;;;;4951710;29;20050;-81
2022/07/21 03:11:40;;;;;;;26.73;24.52;;;21.20;71.10;;;;;;4953122;29;20729;-81
2022/07/21 03:14:06;;;;;;;27.05;24.70;;;21.10;70.80;;;;;;4951694;29;20038;-81
2022/07/21 03:16:32;;;;;;;26.52;24.20;;;21.00;71.20;;;;;;4952584;28;20430;-81
2022/07/21 03:18:58;;;;;;;26.75;24.40;;;20.90;71.50;;;;;;4953129;29;20039;-81
2022/07/21 03:21:24;;;;;;;26.95;24.52;;;20.90;71.30;;;;;;4952771;29;20027;-81
2022/07/21 03:23:50;;;;;;;27.42;25.00;;;20.90;71.10;;;;;;4953069;29;20038;-81
2022/07/21 03:26:16;;;;;;;25.83;23.73;;;20.90;70.90;;;;;;4952899;29;20031;-81
2022/07/21 03:28:43;;;;;;;25.92;24.13;;;20.80;71.10;;;;;;4952447;29;20046;-81
2022/07/21 03:31:09;;;;;;;26.50;24.40;;;20.70;71.20;;;;;;4952441;28;20036;-81
2022/07/21 03:33:35;;;;;;;26.20;24.23;;;20.80;71.00;;;;;;4951460;29;20462;-81
2022/07/21 03:36:01;;;;;;;27.67;25.35;;;20.70;71.00;;;;;;4952835;29;20046;-80
2022/07/21 03:38:28;;;;;;;25.98;23.88;;;20.70;71.00;;;;;;4951842;29;20051;-81
2022/07/21 03:40:54;;;;;;;26.63;24.52;;;20.70;71.10;;;;;;4952786;29;20566;-81
2022/07/21 03:43:20;;;;;;;27.58;24.90;;;20.80;70.90;;;;;;4952437;29;20039;-81
2022/07/21 03:45:46;;;;;;;26.35;24.10;;;20.70;70.70;;;;;;4952353;28;20035;-81
2022/07/21 03:48:12;;;;;;;25.95;23.77;;;20.70;71.00;;;;;;4951337;28;20039;-80
2022/07/21 03:50:39;;;;;;;26.52;24.38;;;20.70;71.10;;;;;;4952833;29;20397;-81
2022/07/21 03:53:06;;;;;;;26.67;24.58;;;20.70;70.80;;;;;;4952410;28;20031;-81
2022/07/21 03:55:32;;;;;;;25.98;24.08;;;20.80;70.40;;;;;;4956489;29;20598;-81
2022/07/21 03:57:59;;;;;;;25.05;23.42;;;20.70;70.50;;;;;;4954802;29;20051;-81
2022/07/21 04:00:31;;;;;;;26.00;24.13;;;20.60;70.90;;;;;;4958908;28;20039;-81
2022/07/21 04:02:57;;;;;;;26.25;24.23;;;20.70;70.50;;;;;;4956146;29;20035;-81
2022/07/21 04:05:24;;;;;;;25.52;23.52;;;20.70;70.20;;;;;;4944292;28;20027;-81
2022/07/21 04:07:50;;;;;;;25.63;23.65;;;20.70;69.90;;;;;;4947186;29;20042;-81
2022/07/21 04:10:18;;;;;;;26.52;24.58;;;20.70;70.20;;;;;;4956309;29;20470;-81
2022/07/21 04:12:44;;;;;;;26.63;24.67;;;20.60;70.20;;;;;;4955816;29;20027;-81
2022/07/21 04:15:11;;;;;;;26.67;24.52;;;20.60;70.50;;;;;;4954523;28;20374;-81
2022/07/21 04:17:37;;;;;;;26.80;24.42;;;20.60;70.70;;;;;;4954874;28;20042;-81
2022/07/21 04:20:04;;;;;;;25.70;23.70;;;20.50;71.10;;;;;;4956023;29;20034;-81
2022/07/21 04:22:30;;;;;;;25.40;23.60;;;20.50;71.00;;;;;;4954887;28;20477;-81
2022/07/21 04:24:56;;;;;;;27.48;25.20;;;20.50;70.80;;;;;;4955934;29;20027;-81
2022/07/21 04:27:22;;;;;;;25.75;23.77;;;20.50;70.80;;;;;;4955533;29;20378;-80
2022/07/21 04:29:48;;;;;;;25.67;23.88;;;20.60;70.20;;;;;;4955905;29;20035;-81
2022/07/21 04:32:15;;;;;;;27.50;25.02;;;20.70;70.00;;;;;;4954125;28;20038;-80
2022/07/21 04:34:41;;;;;;;27.10;25.00;;;20.60;70.20;;;;;;4955787;29;20027;-81
2022/07/21 04:37:07;;;;;;;25.17;23.25;;;20.50;70.60;;;;;;4955995;28;20128;-81
2022/07/21 04:39:33;;;;;;;27.20;25.20;;;20.50;70.60;;;;;;4954526;29;20042;-81
2022/07/21 04:41:59;;;;;;;26.88;24.80;;;20.40;70.90;;;;;;4955317;29;20031;-80
2022/07/21 04:44:25;;;;;;;26.20;24.17;;;20.50;70.80;;;;;;4954468;29;20039;-81
2022/07/21 04:46:51;;;;;;;26.83;24.63;;;20.50;70.90;;;;;;4955230;28;20039;-81
2022/07/21 04:49:17;;;;;;;27.70;25.60;;;20.50;70.70;;;;;;4954319;28;20042;-81
2022/07/21 04:51:43;;;;;;;24.50;22.42;;;20.60;70.20;;;;;;4954241;29;20027;-81
2022/07/21 04:54:13;;;;;;;26.42;24.23;;;20.50;70.30;;;;;;4955480;28;20070;-81
2022/07/21 04:56:42;;;;;;;22.50;20.25;;;20.40;70.70;;;;;;4953806;29;20050;-81
2022/07/21 04:59:09;;;;;;;25.10;22.90;;;20.30;71.00;;;;;;4954204;29;20062;-81
2022/07/21 05:01:35;;;;;;;25.27;23.00;;;20.20;71.40;;;;;;4965374;28;20046;-81
2022/07/21 05:04:01;;;;;;;26.08;23.58;;;20.30;71.30;;;;;;4953879;28;20027;-80
2022/07/21 05:06:28;;;;;;;26.40;24.52;;;20.40;70.90;;;;;;4936737;29;20490;-81
2022/07/21 05:08:54;;;;;;;22.83;21.02;;;20.40;70.60;;;;;;4954105;28;20043;-81
2022/07/21 05:11:20;;;;;;;22.83;21.10;;;20.50;70.10;;;;;;4954712;29;20034;-81
2022/07/21 05:13:46;;;;;;;24.42;22.40;;;20.60;70.00;;;;;;4953819;29;20505;-81
2022/07/21 05:16:12;;;;;;;23.33;21.60;;;20.70;69.50;;;;;;4954572;28;20051;-81
2022/07/21 05:18:38;;;;;;;24.40;22.25;;;20.90;68.80;;;;;;4955107;29;20034;-81
2022/07/21 05:21:04;;;;;;;23.48;21.52;;;21.10;68.50;;;;;;4953715;28;20043;-81
2022/07/21 05:23:30;;;;;;;23.95;21.92;;;21.10;67.70;;;;;;4954941;29;20038;-81
2022/07/21 05:25:56;;;;;;;23.40;21.48;;;20.90;68.20;;;;;;4953414;29;20410;-81
2022/07/21 05:28:22;;;;;;;24.52;22.58;;;20.80;68.80;;;;;;4953343;29;20043;-81
2022/07/21 05:30:48;;;;;;;23.92;22.00;;;20.80;69.00;;;;;;4954243;28;20043;-81
2022/07/21 05:33:14;;;;;;;23.05;21.13;;;20.70;69.00;;;;;;4954817;29;20035;-81
2022/07/21 05:35:41;;;;;;;24.02;22.42;;;20.70;69.30;;;;;;4953322;29;20043;-81
2022/07/21 05:38:07;;;;;;;23.20;21.25;;;20.60;69.30;;;;;;4954920;29;20042;-81
2022/07/21 05:40:33;;;;;;;23.83;21.75;;;20.60;69.60;;;;;;4953079;28;20031;-81
2022/07/21 05:42:59;;;;;;;23.40;21.50;;;20.80;69.10;;;;;;4954471;29;20371;-81
2022/07/21 05:45:25;;;;;;;23.95;21.73;;;20.80;68.60;;;;;;4952875;28;20035;-81
2022/07/21 05:47:51;;;;;;;23.38;21.42;;;20.80;68.60;;;;;;4954539;29;20386;-81
2022/07/21 05:50:17;;;;;;;22.52;20.80;;;20.90;68.50;;;;;;4952931;29;20042;-81
2022/07/21 05:52:43;;;;;;;23.70;21.75;;;21.00;68.30;;;;;;4954159;29;20031;-81
2022/07/21 05:55:10;;;;;;;23.13;21.27;;;21.00;68.10;;;;;;4954055;29;20043;-81
2022/07/21 05:57:37;;;;;;;23.23;21.52;;;21.00;68.00;;;;;;4952952;28;20024;-81
2022/07/21 06:00:04;;;;;;;23.77;21.92;;;21.00;68.20;;;;;;4956462;28;20047;-81
2022/07/21 06:02:31;;;;;;;23.88;21.60;;;21.10;67.90;;;;;;4952745;29;20039;-81
2022/07/21 06:04:57;;;;;;;23.02;21.15;;;21.00;68.10;;;;;;4952616;29;20043;-81
2022/07/21 06:07:23;;;;;;;23.40;21.50;;;21.00;68.20;;;;;;4943486;28;20044;-81
2022/07/21 06:09:49;;;;;;;23.35;21.45;;;21.10;68.00;;;;;;4933585;29;20384;-81
2022/07/21 06:12:15;;;;;;;23.60;21.67;;;21.20;67.70;;;;;;4934760;29;20039;-81
2022/07/21 06:14:42;;;;;;;23.35;21.25;;;21.20;67.60;;;;;;4933395;29;20046;-81
2022/07/21 06:17:08;;;;;;;23.67;21.67;;;21.20;67.70;;;;;;4932616;28;20043;-81
2022/07/21 06:19:34;;;;;;;23.70;21.80;;;21.10;68.20;;;;;;4935121;29;20036;-81
2022/07/21 06:22:02;;;;;;;22.55;20.67;;;21.00;68.50;;;;;;4932655;29;20036;-81
2022/07/21 06:24:28;;;;;;;23.80;21.92;;;21.00;68.70;;;;;;4933487;29;20040;-81
2022/07/21 06:26:57;;;;;;;24.08;22.25;;;21.00;68.50;;;;;;4934326;29;20039;-81
2022/07/21 06:29:23;;;;;;;25.95;23.92;;;21.00;68.40;;;;;;4917950;29;20043;-81
2022/07/21 06:31:50;;;;;;;27.23;25.05;;;21.20;67.90;;;;;;4930990;28;20502;-81
2022/07/21 06:34:16;;;;;;;30.50;28.50;;;21.20;67.70;;;;;;4934271;29;20043;-81
2022/07/21 06:36:42;;;;;;;27.85;25.95;;;21.40;67.30;;;;;;4932546;29;20039;-81
2022/07/21 06:39:08;;;;;;;26.88;24.88;;;21.50;66.50;;;;;;4934306;29;20035;-81
2022/07/21 06:41:34;;;;;;;30.70;28.50;;;21.60;66.40;;;;;;4933088;29;20028;-81
2022/07/21 06:44:01;;;;;;;31.80;29.67;;;21.90;65.80;;;;;;4932946;29;20077;-82
2022/07/21 06:46:27;;;;;;;29.90;27.83;;;22.20;64.70;;;;;;4933747;28;20035;-82
2022/07/21 06:48:54;;;;;;;29.77;27.73;;;22.40;63.50;;;;;;4932798;29;20031;-82
2022/07/21 06:51:20;;;;;;;26.05;24.27;;;22.60;64.10;;;;;;4932226;29;20474;-82
2022/07/21 06:53:46;;;;;;;26.45;24.70;;;22.60;62.60;;;;;;4932787;29;20050;-82
2022/07/21 06:56:12;;;;;;;26.55;24.85;;;22.70;62.60;;;;;;4933681;29;20050;-82
2022/07/21 06:58:38;;;;;;;25.00;22.83;;;22.70;62.40;;;;;;4932373;29;20051;-82
2022/07/21 07:01:04;;;;;;;24.40;22.52;;;22.70;62.00;;;;;;4952686;28;20047;-82
2022/07/21 07:03:30;;;;;;;26.35;23.63;;;22.60;62.40;;;;;;4953320;29;20035;-81
2022/07/21 07:05:57;;;;;;;26.33;24.48;;;22.40;62.90;;;;;;4951487;29;20035;-82
2022/07/21 07:08:23;;;;;;;24.92;22.95;;;22.40;63.30;;;;;;4951563;29;20500;-81
2022/07/21 07:10:49;;;;;;;24.27;22.38;;;22.50;63.00;;;;;;4935961;29;20055;-81
2022/07/21 07:13:15;;;;;;;25.23;22.85;;;22.50;62.60;;;;;;4951641;29;20035;-82
2022/07/21 07:15:41;;;;;;;24.80;22.52;;;22.60;62.50;;;;;;4935164;28;20442;-82
2022/07/21 07:18:07;;;;;;;27.92;25.92;;;22.70;62.50;;;;;;4952694;28;20070;-82
2022/07/21 07:20:34;;;;;;;25.95;24.20;;;22.90;63.10;;;;;;4952369;29;20027;-82
2022/07/21 07:23:00;;;;;;;27.02;24.92;;;23.10;61.50;;;;;;4952543;29;20240;-82
2022/07/21 07:25:26;;;;;;;26.48;24.27;;;23.10;60.60;;;;;;4952756;29;20035;-82
2022/07/21 07:27:54;;;;;;;25.83;24.00;;;23.10;60.30;;;;;;4954961;28;20038;-81
2022/07/21 07:30:20;;;;;;;25.33;23.58;;;23.10;60.30;;;;;;4958380;28;20619;-81
2022/07/21 07:32:47;;;;;;;26.77;24.77;;;23.00;60.30;;;;;;4958967;29;20375;-81
2022/07/21 07:35:13;;;;;;;28.65;26.63;;;22.90;60.90;;;;;;4958797;28;20034;-82
2022/07/21 07:37:40;;;;;;;29.13;27.15;;;23.00;61.90;;;;;;4957493;28;20046;-82
2022/07/21 07:40:09;;;;;;;26.55;24.67;;;23.30;60.20;;;;;;4958863;29;20027;-81
2022/07/21 07:42:36;;;;;;;25.63;23.92;;;23.30;59.60;;;;;;4959083;28;20373;-82
2022/07/21 07:45:03;;;;;;;26.23;24.15;;;23.20;60.00;;;;;;4957179;28;20042;-80
2022/07/21 07:47:29;;;;;;;25.55;23.63;;;23.30;60.30;;;;;;4958667;29;20030;-82
2022/07/21 07:49:55;;;;;;;26.92;25.13;;;23.30;60.10;;;;;;4958578;29;20043;-82
2022/07/21 07:52:21;;;;;;;26.83;25.00;;;23.40;59.90;;;;;;4958586;28;20038;-82
2022/07/21 07:54:47;;;;;;;26.48;24.77;;;23.40;59.90;;;;;;4957565;29;20038;-82
2022/07/21 07:57:13;;;;;;;27.38;25.30;;;23.40;59.80;;;;;;4958828;29;20046;-82
2022/07/21 07:59:39;;;;;;;27.02;25.13;;;23.40;59.90;;;;;;4961307;28;20050;-81
2022/07/21 08:02:05;;;;;;;26.00;24.33;;;23.50;59.40;;;;;;4958256;28;20405;-82
2022/07/21 08:04:31;;;;;;;28.08;25.98;;;23.60;60.00;;;;;;4941401;28;20023;-82
2022/07/21 08:06:57;;;;;;;29.52;27.15;;;23.70;59.50;;;;;;4957421;29;20034;-82
2022/07/21 08:09:23;;;;;;;29.17;26.90;;;23.80;58.80;;;;;;4957214;28;20043;-81
2022/07/21 08:11:50;;;;;;;28.48;26.23;;;23.60;59.20;;;;;;4958646;29;20394;-82
2022/07/21 08:14:16;;;;;;;28.58;26.33;;;23.50;59.80;;;;;;4957528;29;20067;-82
2022/07/21 08:16:42;;;;;;;28.52;26.42;;;23.60;59.80;;;;;;4958144;28;20035;-82
2022/07/21 08:19:09;;;;;;;28.98;26.73;;;23.80;59.70;;;;;;4957253;28;20528;-82
2022/07/21 08:21:35;;;;;;;29.02;27.13;;;23.80;58.60;;;;;;4958378;28;20039;-82
2022/07/21 08:24:01;;;;;;;28.98;26.77;;;23.70;59.30;;;;;;4957262;29;20035;-82
2022/07/21 08:26:27;;;;;;;30.77;28.73;;;23.80;59.20;;;;;;4958677;29;20027;-82
2022/07/21 08:28:54;;;;;;;29.42;27.50;;;24.00;58.30;;;;;;4958356;28;20497;-82
2022/07/21 08:31:20;;;;;;;32.15;29.77;;;23.90;58.40;;;;;;4956875;28;20043;-82
2022/07/21 08:33:46;;;;;;;31.88;29.45;;;24.10;58.80;;;;;;4958319;29;20393;-82
2022/07/21 08:36:12;;;;;;;30.42;28.27;;;24.30;58.70;;;;;;4957457;29;20042;-82
2022/07/21 08:38:38;;;;;;;30.80;29.08;;;24.50;57.50;;;;;;4958171;28;20019;-82
2022/07/21 08:41:04;;;;;;;33.35;31.20;;;24.50;57.30;;;;;;4955534;29;20023;-83
2022/07/21 08:43:30;;;;;;;31.83;29.80;;;24.40;57.80;;;;;;4954217;29;20039;-82
2022/07/21 08:45:56;;;;;;;30.13;28.23;;;24.60;58.00;;;;;;4955176;28;20023;-83
2022/07/21 08:48:26;;;;;;;33.13;31.08;;;24.80;56.50;;;;;;4937729;29;20035;-83
2022/07/21 08:50:52;;;;;;;31.63;29.48;;;24.90;57.40;;;;;;4953878;29;20039;-83
2022/07/21 08:53:18;;;;;;;33.03;30.77;;;25.20;57.20;;;;;;4955483;29;20031;-83
2022/07/21 08:55:44;;;;;;;41.17;38.65;;;25.40;56.40;;;;;;4955236;29;20042;-82
2022/07/21 08:58:11;;;;;;;50.15;47.17;;;25.50;55.30;;;;;;4954245;29;20039;-83
2022/07/21 09:00:40;;;;;;;58.90;55.42;;;25.70;55.90;;;;;;4954680;28;20394;-83
2022/07/21 09:03:19;;;;;;;66.30;62.70;;;25.80;55.30;;;;;;4955009;29;20485;-83
2022/07/21 09:06:07;;;;;;;42.80;39.80;;;26.00;53.80;;;;;;4954041;28;20483;-83
2022/07/21 09:08:38;;;;;;;40.28;37.50;;;26.20;53.50;;;;;;4955176;29;20038;-83
2022/07/21 09:11:11;;;;;;;30.90;29.10;;;26.40;53.90;;;;;;4953883;28;20042;-83
2022/07/21 09:13:38;;;;;;;26.52;24.83;;;26.50;52.50;;;;;;4954989;29;20031;-83
2022/07/21 09:16:04;;;;;;;29.20;26.92;;;26.40;52.70;;;;;;4954246;28;20043;-83
2022/07/21 09:18:31;;;;;;;29.42;27.42;;;26.50;53.70;;;;;;4955179;28;20035;-83
2022/07/21 09:20:58;;;;;;;26.88;25.08;;;26.70;53.60;;;;;;4937963;29;20048;-83
2022/07/21 09:23:24;;;;;;;27.20;25.40;;;26.90;52.10;;;;;;4953430;29;20035;-83
2022/07/21 09:25:55;;;;;;;25.48;23.75;;;27.00;51.50;;;;;;4954530;29;20031;-83
2022/07/21 09:28:25;;;;;;;28.25;26.25;;;26.90;51.10;;;;;;4954762;29;20038;-84
2022/07/21 09:30:52;;;;;;;;;;;26.70;51.60;;;;;;4954149;28;20058;-83
2022/07/21 09:33:31;;;;;;;22.23;20.27;;;26.60;51.80;;;;;;4954777;29;19906;-83
2022/07/21 09:36:17;;;;;;;25.08;23.48;;;26.30;52.40;;;;;;4953786;29;20192;-83
2022/07/21 09:38:49;;;;;;;26.10;24.05;;;26.10;52.70;;;;;;4955539;28;20023;-83
2022/07/21 09:41:17;;;;;;;26.13;24.23;;;26.00;53.50;;;;;;4955374;29;20039;-83
2022/07/21 09:43:48;;;;;;;23.98;22.30;;;26.10;54.00;;;;;;4953731;28;20027;-83
2022/07/21 09:46:40;;;;;;;23.30;21.65;;;26.30;52.70;;;;;;4954225;28;20046;-83
2022/07/21 09:49:07;;;;;;;24.80;23.10;;;26.50;52.60;;;;;;4953709;28;20498;-84
2022/07/21 09:51:37;;;;;;;27.30;25.40;;;26.60;53.20;;;;;;4952752;28;20410;-84
2022/07/21 09:54:10;;;;;;;29.98;27.98;;;26.90;52.10;;;;;;4953771;29;20054;-83
2022/07/21 09:56:42;;;;;;;31.45;29.17;;;27.20;52.10;;;;;;4953941;29;20390;-83
2022/07/21 09:59:09;;;;;;;31.98;29.88;;;27.30;51.40;;;;;;4937583;29;20047;-83
2022/07/21 10:01:36;;;;;;;31.70;29.55;;;27.50;51.60;;;;;;4949996;28;20043;-83
2022/07/21 10:04:02;;;;;;;34.90;32.72;;;27.60;51.10;;;;;;4937085;29;20439;-83
2022/07/21 10:06:38;;;;;;;31.83;29.85;;;27.70;50.60;;;;;;4951542;29;20046;-83
2022/07/21 10:09:06;;;;;;;29.42;27.52;;;27.70;50.00;;;;;;4917978;29;20035;-83
2022/07/21 10:11:32;;;;;;;34.38;32.25;;;27.50;51.00;;;;;;4934527;29;20394;-83
2022/07/21 10:13:58;;;;;;;39.90;37.53;;;27.50;51.00;;;;;;4933621;29;20028;-83
2022/07/21 10:16:24;;;;;;;38.65;36.20;;;27.80;50.20;;;;;;4933180;29;20479;-83
2022/07/21 10:19:02;;;;;;;36.90;34.67;;;27.80;49.30;;;;;;4933522;29;20035;-83
2022/07/21 10:21:37;;;;;;;35.97;33.83;;;27.60;49.10;;;;;;4934556;29;20023;-83
2022/07/21 10:24:04;;;;;;;33.58;31.40;;;27.80;49.30;;;;;;4934525;29;20386;-83
2022/07/21 10:26:30;;;;;;;30.85;28.73;;;27.80;48.30;;;;;;4902203;29;20552;-83
2022/07/21 10:28:57;;;;;;;32.72;30.73;;;27.60;48.70;;;;;;4901663;29;20044;-83
2022/07/21 10:31:24;;;;;;;35.72;33.63;;;27.60;49.20;;;;;;4916749;29;20048;-83
2022/07/21 10:33:50;;;;;;;36.40;34.35;;;27.90;49.30;;;;;;4934487;29;20032;-84
2022/07/21 10:36:28;;;;;;;36.40;34.17;;;28.30;48.60;;;;;;4933323;29;20043;-84
2022/07/21 10:39:07;;;;;;;40.92;38.53;;;28.70;47.10;;;;;;4934611;29;20036;-84
2022/07/21 10:41:38;;;;;;;45.70;43.05;;;28.80;46.50;;;;;;4934137;29;20023;-84
2022/07/21 10:44:27;;;;;;;39.38;37.15;;;29.20;46.20;;;;;;4933940;29;20039;-84
2022/07/21 10:47:15;;;;;;;44.58;41.97;;;29.40;44.80;;;;;;4933796;28;20028;-84
2022/07/21 10:50:07;;;;;;;41.90;39.50;;;29.50;44.70;;;;;;4932855;29;20491;-84
2022/07/21 10:52:39;;;;;;;42.42;40.08;;;29.40;44.40;;;;;;4933286;28;20044;-84
2022/07/21 10:55:16;;;;;;;45.92;43.28;;;29.50;43.40;;;;;;4934235;29;20376;-84
2022/07/21 10:57:43;;;;;;;49.45;46.70;;;29.10;44.30;;;;;;4933737;29;20113;-84
2022/07/21 11:00:19;;;;;;;50.83;48.10;;;29.40;45.70;;;;;;4924446;28;20035;-84
2022/07/21 11:02:59;;;;;;;40.92;37.72;;;29.70;45.10;;;;;;4952586;28;20047;-84
2022/07/21 11:05:26;;;;;;;50.38;47.65;;;29.40;45.20;;;;;;4941238;29;20032;-84
2022/07/21 11:08:16;;;;;;;54.17;51.17;;;29.40;45.50;;;;;;4972850;28;20382;-84
2022/07/21 11:10:52;;;;;;;52.70;49.70;;;29.60;45.10;;;;;;4951648;29;20047;-84
2022/07/21 11:13:19;;;;;;;48.70;45.88;;;29.80;45.00;;;;;;4951374;28;20505;-84
2022/07/21 11:15:57;;;;;;;46.75;44.05;;;30.00;44.30;;;;;;4951263;28;20035;-84
2022/07/21 11:18:25;;;;;;;44.67;42.17;;;30.10;42.00;;;;;;4953029;28;20050;-84
2022/07/21 11:21:13;;;;;;;44.45;42.03;;;29.80;43.60;;;;;;4951804;28;20042;-84
2022/07/21 11:23:45;;;;;;;46.47;43.90;;;30.20;43.40;;;;;;4952923;29;20053;-84
2022/07/21 11:26:12;;;;;;;46.92;44.42;;;30.60;42.90;;;;;;4951679;29;20363;-84
2022/07/21 11:28:38;;;;;;;44.72;42.08;;;30.80;42.80;;;;;;4952649;29;20023;-84
2022/07/21 11:31:18;;;;;;;41.80;39.42;;;30.70;42.40;;;;;;4951031;28;20498;-84
2022/07/21 11:33:45;;;;;;;40.22;37.92;;;30.40;42.60;;;;;;4952638;29;20035;-84
2022/07/21 11:36:25;;;;;;;40.47;38.25;;;29.90;43.50;;;;;;4951583;29;20035;-84
2022/07/21 11:38:58;;;;;;;43.35;40.85;;;29.50;44.10;;;;;;4951697;29;20469;-84
2022/07/21 11:41:24;;;;;;;45.00;42.45;;;29.40;44.80;;;;;;4935261;29;20281;-84
2022/07/21 11:43:51;;;;;;;42.05;39.60;;;29.70;43.50;;;;;;4951780;28;20043;-84
2022/07/21 11:46:17;;;;;;;41.30;38.90;;;29.50;43.60;;;;;;4952357;28;20482;-85
2022/07/21 11:48:43;;;;;;;40.40;37.83;;;29.50;43.00;;;;;;4952774;29;20035;-84
2022/07/21 11:51:09;;;;;;;42.22;39.63;;;29.90;42.80;;;;;;4951453;29;20128;-84
2022/07/21 11:53:35;;;;;;;40.72;38.33;;;30.20;42.80;;;;;;4952901;29;20023;-84
2022/07/21 11:56:01;;;;;;;39.58;36.97;;;30.50;42.80;;;;;;4951703;29;20306;-84
2022/07/21 11:58:27;;;;;;;39.28;36.78;;;30.60;41.80;;;;;;4951636;29;20059;-84
2022/07/21 12:01:06;;;;;;;44.80;42.13;;;29.60;43.10;;;;;;4956162;28;20035;-84
2022/07/21 12:03:32;;;;;;;41.75;39.00;;;29.80;43.70;;;;;;4951199;28;20035;-84
2022/07/21 12:06:03;;;;;;;40.58;38.10;;;29.90;43.00;;;;;;4951945;29;20039;-84
2022/07/21 12:08:30;;;;;;;43.97;41.38;;;30.10;43.60;;;;;;4934866;29;20035;-85
2022/07/21 12:11:08;;;;;;;34.63;32.63;;;30.50;42.10;;;;;;4944956;29;20024;-84
2022/07/21 12:13:54;;;;;;;40.03;37.80;;;30.20;41.70;;;;;;4940480;29;20034;-84
2022/07/21 12:16:20;;;;;;;47.05;43.85;;;30.40;41.80;;;;;;4959123;28;20047;-84
2022/07/21 12:18:46;;;;;;;42.72;40.10;;;30.60;40.90;;;;;;4961639;29;20030;-84
2022/07/21 12:21:12;;;;;;;43.65;40.95;;;30.70;41.90;;;;;;4959744;28;20027;-84
2022/07/21 12:23:38;;;;;;;53.05;49.90;;;30.90;41.20;;;;;;4960195;28;20031;-84
2022/07/21 12:26:05;;;;;;;42.50;40.00;;;31.10;40.50;;;;;;4958879;29;20039;-84
2022/07/21 12:28:53;;;;;;;35.78;33.55;;;30.50;40.10;;;;;;4938575;29;20052;-84
2022/07/21 12:31:20;;;;;;;43.13;40.70;;;29.90;40.70;;;;;;4939069;28;20051;-84
2022/07/21 12:33:47;;;;;;;34.63;32.33;;;29.90;42.00;;;;;;4939167;29;20031;-84